Time;durP1;ratioP1;P1;durP2;ratioP2;P2;SDS_P1;SDS_P2;PMS_P1;PMS_P2;Temp;Humidity;BMP_temperature;BMP_pressure;BME280_temperature;BME280_humidity;BME280_pressure;Samples;Min_cycle;Max_cycle;Signal;HPM_P1;HPM_P2
2023/08/19 00:01:05;;;;;;;15.15;8.93;;;;;;;22.27;100.00;100455.55;1542191;84;22348;-81
2023/08/19 00:03:34;;;;;;;10.78;8.70;;;;;;;22.26;100.00;100453.89;1533071;84;21424;-81
2023/08/19 00:06:08;;;;;;;13.08;9.75;;;;;;;22.24;100.00;100447.39;1532515;84;21890;-81
2023/08/19 00:08:35;;;;;;;11.35;9.53;;;;;;;22.21;100.00;100447.84;1522387;84;21543;-81
2023/08/19 00:11:03;;;;;;;15.03;9.53;;;;;;;22.18;100.00;100446.94;1487346;84;21395;-81
2023/08/19 00:13:32;;;;;;;11.88;8.93;;;;;;;22.15;100.00;100447.33;1503315;84;21505;-81
2023/08/19 00:15:59;;;;;;;13.50;10.10;;;;;;;22.12;100.00;100446.95;1533992;84;21875;-82
2023/08/19 00:19:34;;;;;;;11.35;9.18;;;;;;;22.10;100.00;100441.81;1531092;84;21446;-81
2023/08/19 00:22:00;;;;;;;14.07;9.50;;;;;;;22.09;100.00;100444.18;1537677;84;21432;-80
2023/08/19 00:24:30;;;;;;;13.28;8.80;;;;;;;22.09;100.00;100446.87;1533691;84;21527;-81
2023/08/19 00:26:59;;;;;;;11.85;8.38;;;;;;;22.08;100.00;100443.36;1532010;84;21484;-80
2023/08/19 00:29:26;;;;;;;13.05;9.20;;;;;;;22.05;100.00;100443.81;1534272;84;21299;-81
2023/08/19 00:31:52;;;;;;;12.18;9.45;;;;;;;22.00;100.00;100442.83;1536191;84;22429;-80
2023/08/19 00:34:18;;;;;;;12.45;8.30;;;;;;;21.97;100.00;100445.44;1524048;84;21389;-81
2023/08/19 00:36:45;;;;;;;9.83;8.78;;;;;;;21.95;100.00;100444.01;1539243;84;21478;-80
2023/08/19 00:39:11;;;;;;;10.08;8.50;;;;;;;21.95;100.00;100446.20;1527561;84;21638;-81
2023/08/19 00:41:38;;;;;;;11.93;8.35;;;;;;;21.93;100.00;100442.91;1536548;84;22371;-80
2023/08/19 00:44:06;;;;;;;9.55;7.90;;;;;;;21.92;100.00;100439.89;1534978;84;22022;-81
2023/08/19 00:46:33;;;;;;;9.55;8.45;;;;;;;21.88;100.00;100434.66;1537839;84;21395;-80
2023/08/19 00:48:59;;;;;;;11.70;9.10;;;;;;;21.84;100.00;100434.81;1541253;84;22512;-80
2023/08/19 00:51:26;;;;;;;10.03;9.03;;;;;;;21.78;100.00;100435.17;1530667;84;21907;-80
2023/08/19 00:53:53;;;;;;;11.73;9.40;;;;;;;21.73;100.00;100428.80;1537987;84;21455;-81
2023/08/19 00:56:20;;;;;;;10.13;9.13;;;;;;;21.70;100.00;100429.23;1532669;84;21321;-81
2023/08/19 00:58:46;;;;;;;13.18;8.23;;;;;;;21.68;100.00;100434.02;1506696;84;21343;-81
2023/08/19 01:01:12;;;;;;;15.25;9.25;;;;;;;21.71;100.00;100441.65;1537574;84;21417;-82
2023/08/19 01:03:39;;;;;;;11.25;9.45;;;;;;;21.72;100.00;100439.25;1534698;84;21688;-81
2023/08/19 01:06:26;;;;;;;11.28;9.60;;;;;;;21.70;100.00;100450.26;1533867;84;21336;-80
2023/08/19 01:09:25;;;;;;;21.75;10.18;;;;;;;21.67;100.00;100452.05;1534715;84;22232;-80
2023/08/19 01:12:48;;;;;;;12.05;9.80;;;;;;;21.62;100.00;100460.77;1531206;84;21521;-79
2023/08/19 01:15:27;;;;;;;12.28;8.75;;;;;;;21.51;100.00;100452.05;1532125;84;22760;-78
2023/08/19 01:17:55;;;;;;;12.30;9.73;;;;;;;21.43;100.00;100439.38;1505048;84;21490;-79
2023/08/19 01:20:28;;;;;;;12.90;9.58;;;;;;;21.46;100.00;100441.64;1532832;84;21550;-79
2023/08/19 01:23:03;;;;;;;14.18;9.18;;;;;;;21.45;100.00;100440.81;1527686;84;21454;-80
2023/08/19 01:25:31;;;;;;;11.70;8.80;;;;;;;21.48;100.00;100448.45;1528852;84;22328;-79
2023/08/19 01:28:02;;;;;;;12.45;9.25;;;;;;;21.48;100.00;100444.41;1531657;84;21521;-84
2023/08/19 01:30:30;;;;;;;13.18;9.45;;;;;;;21.43;100.00;100434.81;1537325;84;21425;-83
2023/08/19 01:33:06;;;;;;;13.90;9.80;;;;;;;21.42;100.00;100450.67;1529353;84;21454;-83
2023/08/19 01:35:40;;;;;;;10.23;9.13;;;;;;;21.42;100.00;100450.67;1522600;85;21878;-83
2023/08/19 01:38:21;;;;;;;16.52;10.70;;;;;;;21.43;100.00;100459.58;1521391;85;21404;-83
2023/08/19 01:40:47;;;;;;;13.03;11.65;;;;;;;21.37;100.00;100450.50;1520380;85;21587;-83
2023/08/19 01:43:15;;;;;;;13.45;11.65;;;;;;;21.33;100.00;100453.30;1499263;85;21933;-83
2023/08/19 01:45:41;;;;;;;11.20;10.00;;;;;;;21.12;100.00;100435.12;1527273;85;21337;-83
2023/08/19 01:48:08;;;;;;;12.23;10.85;;;;;;;21.12;100.00;100435.12;1501593;85;21462;-83
2023/08/19 01:50:35;;;;;;;13.95;10.35;;;;;;;21.15;100.00;100441.41;1505567;85;22239;-83
2023/08/19 01:53:01;;;;;;;15.18;10.10;;;;;;;21.09;100.00;100434.70;1523923;85;21530;-83
2023/08/19 01:55:27;;;;;;;16.37;11.53;;;;;;;21.05;100.00;100436.19;1523547;85;21329;-83
2023/08/19 01:57:54;;;;;;;14.07;10.18;;;;;;;21.05;100.00;100436.19;1518876;85;22321;-80
2023/08/19 02:00:20;;;;;;;12.60;9.65;;;;;;;20.99;100.00;100440.57;1517853;85;21395;-80
2023/08/19 02:02:46;;;;;;;11.97;10.72;;;;;;;20.99;100.00;100440.57;1524729;85;21598;-81
2023/08/19 02:05:14;;;;;;;17.05;11.38;;;;;;;21.01;100.00;100440.37;1522899;85;22276;-78
2023/08/19 02:07:41;;;;;;;15.20;10.70;;;;;;;21.01;100.00;100440.37;1502303;85;21558;-80
2023/08/19 02:10:08;;;;;;;10.20;8.60;;;;;;;20.97;100.00;100435.91;1514258;85;22232;-80
2023/08/19 02:12:34;;;;;;;11.22;9.58;;;;;;;20.97;100.00;100437.27;1518585;85;21580;-80
2023/08/19 02:15:01;;;;;;;13.45;10.35;;;;;;;20.97;100.00;100439.95;1515047;85;21299;-80
2023/08/19 02:17:27;;;;;;;18.10;10.18;;;;;;;20.95;100.00;100440.70;1522512;85;21489;-81
2023/08/19 02:19:53;;;;;;;12.68;9.53;;;;;;;20.95;100.00;100440.70;1521813;85;21642;-82
2023/08/19 02:22:21;;;;;;;12.60;10.18;;;;;;;20.98;100.00;100456.42;1519721;85;21336;-80
2023/08/19 02:24:49;;;;;;;14.05;9.03;;;;;;;20.98;100.00;100456.42;1525467;85;22505;-82
2023/08/19 02:27:16;;;;;;;14.13;9.15;;;;;;;20.99;100.00;100452.67;1525159;85;22275;-81
2023/08/19 02:29:42;;;;;;;10.38;9.30;;;;;;;20.99;100.00;100452.67;1519665;85;22097;-82
2023/08/19 02:32:09;;;;;;;18.23;10.50;;;;;;;20.99;100.00;100446.48;1522515;85;21403;-81
2023/08/19 02:34:35;;;;;;;11.78;10.43;;;;;;;20.88;100.00;100447.97;1505086;85;21550;-80
2023/08/19 02:37:03;;;;;;;13.60;11.05;;;;;;;20.88;100.00;100447.97;1517102;86;21410;-81
2023/08/19 02:39:31;;;;;;;16.75;10.93;;;;;;;20.79;100.00;100445.23;1508342;86;22305;-79
2023/08/19 02:41:57;;;;;;;11.97;10.28;;;;;;;20.75;100.00;100448.06;1495308;86;21543;-80
2023/08/19 02:44:23;;;;;;;13.98;10.43;;;;;;;20.73;100.00;100435.62;1510972;85;21299;-79
2023/08/19 02:46:49;;;;;;;12.03;9.85;;;;;;;20.72;100.00;100439.37;1510679;85;21447;-78
2023/08/19 02:49:15;;;;;;;13.70;8.60;;;;;;;20.73;100.00;100446.38;1506729;85;21470;-79
2023/08/19 02:51:41;;;;;;;12.68;10.55;;;;;;;20.78;100.00;100461.08;1517910;86;21507;-79
2023/08/19 02:54:07;;;;;;;10.82;9.68;;;;;;;20.81;100.00;100459.30;1509429;86;21435;-80
2023/08/19 02:56:34;;;;;;;14.00;10.03;;;;;;;20.76;100.00;100448.35;1513736;85;22268;-79
2023/08/19 02:59:00;;;;;;;13.83;11.22;;;;;;;20.75;100.00;100454.25;1501882;86;21539;-79
2023/08/19 03:01:26;;;;;;;11.20;10.10;;;;;;;20.79;100.00;100455.98;1504758;86;21392;-80
2023/08/19 03:03:52;;;;;;;12.90;11.25;;;;;;;20.70;100.00;100436.06;1505806;86;21476;-80
2023/08/19 03:06:18;;;;;;;13.05;11.12;;;;;;;20.65;100.00;100427.80;1505589;86;21521;-79
2023/08/19 03:08:44;;;;;;;19.75;11.55;;;;;;;20.64;100.00;100432.88;1504733;86;21366;-79
2023/08/19 03:11:11;;;;;;;12.30;10.30;;;;;;;20.66;100.00;100437.54;1514543;85;21388;-80
2023/08/19 03:13:37;;;;;;;13.55;10.32;;;;;;;20.65;100.00;100431.02;1514151;86;22261;-79
2023/08/19 03:16:04;;;;;;;26.25;9.43;;;;;;;20.59;100.00;100437.25;1510403;86;21454;-79
2023/08/19 03:18:30;;;;;;;14.00;9.68;;;;;;;20.54;100.00;100431.16;1511783;85;22018;-79
2023/08/19 03:20:58;;;;;;;19.65;9.95;;;;;;;20.44;100.00;100430.23;1510573;86;21365;-82
2023/08/19 03:23:33;;;;;;;12.35;9.60;;;;;;;20.35;100.00;100427.48;1520007;85;21394;-81
2023/08/19 03:25:59;;;;;;;12.25;10.72;;;;;;;20.25;100.00;100425.75;1509608;85;21411;-81
2023/08/19 03:28:26;;;;;;;14.60;10.23;;;;;;;20.20;100.00;100421.55;1513990;86;21344;-80
2023/08/19 03:30:52;;;;;;;12.85;9.58;;;;;;;20.17;100.00;100419.25;1512905;85;21395;-80
2023/08/19 03:33:20;;;;;;;13.20;9.03;;;;;;;20.10;100.00;100421.14;1510786;84;21358;-80
2023/08/19 03:35:46;;;;;;;19.27;11.73;;;;;;;20.05;100.00;100421.76;1515399;86;22320;-82
2023/08/19 03:38:13;;;;;;;19.70;11.65;;;;;;;20.00;100.00;100426.96;1520232;86;21366;-82
2023/08/19 03:40:40;;;;;;;13.98;10.45;;;;;;;19.99;100.00;100429.32;1514647;85;21647;-78
2023/08/19 03:43:09;;;;;;;14.95;11.78;;;;;;;20.01;100.00;100424.57;1512917;86;21864;-79
2023/08/19 03:45:36;;;;;;;12.85;10.98;;;;;;;20.05;100.00;100428.48;1518832;86;21441;-79
2023/08/19 03:48:02;;;;;;;15.53;10.90;;;;;;;20.11;100.00;100430.84;1489486;86;21321;-79
2023/08/19 03:50:28;;;;;;;13.03;11.78;;;;;;;20.17;100.00;100434.03;1522263;85;21424;-82
2023/08/19 03:52:55;;;;;;;12.28;11.08;;;;;;;20.22;100.00;100435.05;1492776;86;21409;-82
2023/08/19 03:55:21;;;;;;;28.05;12.30;;;;;;;20.24;100.00;100436.20;1513202;86;21350;-81
2023/08/19 03:57:47;;;;;;;18.77;11.38;;;;;;;20.27;100.00;100437.94;1508760;86;21404;-81
2023/08/19 04:00:35;;;;;;;14.45;10.75;;;;;;;20.26;100.00;100435.48;1510798;86;21401;-81
2023/08/19 04:03:01;;;;;;;15.00;10.13;;;;;;;20.25;100.00;100438.69;1502438;86;21559;-82
2023/08/19 04:05:27;;;;;;;11.50;10.40;;;;;;;20.24;100.00;100431.64;1516658;85;21454;-81
2023/08/19 04:07:53;;;;;;;25.12;13.43;;;;;;;20.26;100.00;100430.11;1515902;85;21536;-81
2023/08/19 04:10:23;;;;;;;14.95;10.93;;;;;;;20.29;100.00;100436.40;1513594;86;22990;-82
2023/08/19 04:12:49;;;;;;;15.70;11.28;;;;;;;20.33;100.00;100436.80;1497470;86;21554;-79
2023/08/19 04:15:17;;;;;;;16.87;11.73;;;;;;;20.39;100.00;100434.60;1517586;86;22320;-79
2023/08/19 04:17:43;;;;;;;12.45;10.72;;;;;;;20.43;100.00;100435.84;1521894;86;21462;-79
2023/08/19 04:20:11;;;;;;;11.48;10.30;;;;;;;20.50;100.00;100440.66;1506317;86;21432;-80
2023/08/19 04:22:37;;;;;;;26.42;12.23;;;;;;;20.54;100.00;100441.91;1511852;86;22410;-80
2023/08/19 04:25:04;;;;;;;17.00;10.63;;;;;;;20.58;100.00;100443.16;1510350;86;21402;-80
2023/08/19 04:27:31;;;;;;;16.23;11.15;;;;;;;20.64;100.00;100439.61;1508333;86;21329;-80
2023/08/19 04:29:57;;;;;;;13.60;11.80;;;;;;;20.67;100.00;100435.67;1499285;86;22305;-80
2023/08/19 04:32:24;;;;;;;14.38;11.12;;;;;;;20.67;100.00;100435.67;1507606;86;22453;-80
2023/08/19 04:34:50;;;;;;;18.32;11.35;;;;;;;20.76;100.00;100445.66;1536232;84;22253;-80
2023/08/19 04:37:17;;;;;;;13.60;11.57;;;;;;;20.87;100.00;100449.84;1534746;84;21373;-79
2023/08/19 04:39:43;;;;;;;13.03;10.50;;;;;;;20.95;100.00;100449.59;1535625;84;21351;-79
2023/08/19 04:42:09;;;;;;;12.37;11.12;;;;;;;21.04;100.00;100452.05;1538453;84;22473;-79
2023/08/19 04:44:35;;;;;;;14.20;11.50;;;;;;;21.12;100.00;100456.65;1490760;84;21387;-80
2023/08/19 04:47:03;;;;;;;15.15;11.75;;;;;;;21.19;100.00;100453.38;1532718;84;21447;-80
2023/08/19 04:49:30;;;;;;;18.35;11.80;;;;;;;21.28;100.00;100458.51;1528635;84;21506;-80
2023/08/19 04:51:56;;;;;;;19.65;11.15;;;;;;;21.38;100.00;100469.67;1532251;84;21904;-80
2023/08/19 04:54:22;;;;;;;18.07;11.68;;;;;;;21.48;100.00;100471.87;1527407;84;21484;-80
2023/08/19 04:56:48;;;;;;;18.37;12.50;;;;;;;21.60;100.00;100480.36;1530704;84;21387;-79
2023/08/19 04:59:14;;;;;;;17.12;10.72;;;;;;;21.70;100.00;100472.33;1531072;84;22380;-80
2023/08/19 05:01:40;;;;;;;15.80;11.30;;;;;;;21.80;100.00;100477.50;1536115;84;22029;-79
2023/08/19 05:04:07;;;;;;;16.82;11.45;;;;;;;21.92;100.00;100484.34;1525810;84;21365;-80
2023/08/19 05:06:33;;;;;;;18.17;11.15;;;;;;;22.06;100.00;100493.95;1538157;84;21472;-79
2023/08/19 05:09:00;;;;;;;18.17;11.18;;;;;;;22.19;100.00;100493.58;1540898;84;22342;-80
2023/08/19 05:11:26;;;;;;;16.52;10.08;;;;;;;22.28;100.00;100494.94;1535332;84;21359;-79
2023/08/19 05:13:52;;;;;;;15.10;12.70;;;;;;;22.39;100.00;100499.59;1536371;84;21602;-80
2023/08/19 05:16:18;;;;;;;13.22;11.10;;;;;;;22.46;100.00;100502.20;1503989;84;21566;-78
2023/08/19 05:18:44;;;;;;;22.13;11.88;;;;;;;22.39;100.00;100495.55;1536312;84;21337;-80
2023/08/19 05:21:10;;;;;;;17.12;11.75;;;;;;;22.38;100.00;100493.88;1523097;84;21365;-78
2023/08/19 05:23:36;;;;;;;15.32;12.00;;;;;;;22.41;100.00;100502.90;1512197;84;21373;-79
2023/08/19 05:26:02;;;;;;;25.23;11.97;;;;;;;22.42;100.00;100501.84;1534486;84;22393;-80
2023/08/19 05:28:29;;;;;;;18.87;13.10;;;;;;;22.38;100.00;100501.97;1529310;84;21424;-80
2023/08/19 05:30:55;;;;;;;20.75;11.68;;;;;;;22.43;100.00;100509.41;1514147;84;22009;-81
2023/08/19 05:33:22;;;;;;;15.15;12.43;;;;;;;22.49;100.00;100510.67;1534602;84;21468;-80
2023/08/19 05:35:48;;;;;;;25.97;14.58;;;;;;;22.59;100.00;100510.70;1503680;85;21529;-79
2023/08/19 05:38:15;;;;;;;19.82;13.88;;;;;;;22.64;100.00;100503.58;1504796;85;22253;-80
2023/08/19 05:40:41;;;;;;;17.15;12.53;;;;;;;22.72;100.00;100509.99;1519718;85;21388;-79
2023/08/19 05:43:07;;;;;;;16.25;12.90;;;;;;;22.86;100.00;100513.36;1521234;85;21498;-79
2023/08/19 05:45:33;;;;;;;14.43;12.25;;;;;;;23.00;100.00;100516.75;1520900;85;21514;-79
2023/08/19 05:47:59;;;;;;;15.88;13.38;;;;;;;23.09;100.00;100518.62;1515998;85;21477;-79
2023/08/19 05:50:26;;;;;;;26.25;14.07;;;;;;;23.20;100.00;100524.59;1522253;85;21432;-80
2023/08/19 05:52:52;;;;;;;14.75;13.25;;;;;;;23.31;100.00;100527.88;1518594;85;21395;-80
2023/08/19 05:55:18;;;;;;;15.08;11.93;;;;;;;23.38;100.00;100535.34;1527892;85;22444;-80
2023/08/19 05:57:44;;;;;;;13.68;12.25;;;;;;;23.46;100.00;100533.38;1520651;85;21521;-81
2023/08/19 06:00:11;;;;;;;19.25;10.63;;;;;;;23.56;100.00;100534.48;1519944;85;21359;-80
2023/08/19 06:02:37;;;;;;;13.22;10.43;;;;;;;23.71;100.00;100531.37;1523047;85;21909;-80
2023/08/19 06:05:04;;;;;;;16.35;10.78;;;;;;;23.91;100.00;100533.75;1519843;85;21359;-79
2023/08/19 06:07:31;;;;;;;20.32;10.80;;;;;;;24.11;100.00;100529.38;1520100;85;21359;-79
2023/08/19 06:09:57;;;;;;;12.35;9.95;;;;;;;24.32;100.00;100530.66;1519752;85;21418;-77
2023/08/19 06:12:23;;;;;;;19.27;10.08;;;;;;;24.51;100.00;100531.36;1517897;85;21432;-79
2023/08/19 06:14:49;;;;;;;12.03;8.93;;;;;;;24.66;100.00;100534.42;1515544;85;21470;-79
2023/08/19 06:17:15;;;;;;;13.65;9.30;;;;;;;24.83;100.00;100525.03;1519724;85;21945;-81
2023/08/19 06:19:41;;;;;;;18.27;9.88;;;;;;;24.99;100.00;100537.79;1504215;85;21551;-83
2023/08/19 06:22:08;;;;;;;15.08;12.13;;;;;;;25.17;100.00;100540.05;1521619;85;22988;-86
2023/08/19 06:24:34;;;;;;;17.82;10.43;;;;;;;25.30;100.00;100533.55;1521413;85;21424;-83
2023/08/19 06:27:00;;;;;;;15.95;10.68;;;;;;;25.38;100.00;100529.09;1519605;85;21330;-85
2023/08/19 06:29:26;;;;;;;14.33;10.95;;;;;;;25.38;100.00;100537.22;1523898;85;22296;-84
2023/08/19 06:31:53;;;;;;;17.55;9.85;;;;;;;25.47;100.00;100543.06;1484673;85;21431;-86
2023/08/19 06:34:20;;;;;;;13.83;9.78;;;;;;;25.50;100.00;100550.17;1520785;85;21447;-84
2023/08/19 06:36:48;;;;;;;12.20;9.75;;;;;;;25.53;100.00;100554.28;1513608;86;22327;-85
2023/08/19 06:39:20;;;;;;;12.10;9.80;;;;;;;25.66;100.00;100557.52;1516954;85;21802;-85
2023/08/19 06:41:50;;;;;;;15.75;11.53;;;;;;;25.82;100.00;100557.77;1515218;85;21597;-85
2023/08/19 06:44:18;;;;;;;15.78;11.08;;;;;;;25.92;100.00;100555.23;1511772;85;22350;-85
2023/08/19 06:46:45;;;;;;;16.02;10.65;;;;;;;26.00;100.00;100549.95;1513002;85;21484;-85
2023/08/19 06:49:12;;;;;;;12.37;10.63;;;;;;;26.07;100.00;100550.62;1500871;86;21507;-85
2023/08/19 06:51:39;;;;;;;12.23;10.10;;;;;;;26.17;100.00;100555.37;1501208;86;21388;-83
2023/08/19 06:54:06;;;;;;;19.48;10.58;;;;;;;26.21;100.00;100547.86;1512611;86;21359;-84
2023/08/19 06:56:50;;;;;;;14.85;11.00;;;;;;;26.28;100.00;100549.84;1511624;86;21410;-84
2023/08/19 06:59:30;;;;;;;13.15;10.58;;;;;;;26.41;100.00;100552.73;1490141;86;22414;-84
2023/08/19 07:02:01;;;;;;;18.55;11.22;;;;;;;26.46;100.00;100554.17;1509928;86;22319;-83
2023/08/19 07:04:27;;;;;;;17.77;10.75;;;;;;;26.47;100.00;100558.55;1512604;85;21306;-85
2023/08/19 07:06:59;;;;;;;14.40;10.80;;;;;;;26.46;100.00;100560.95;1514313;86;21505;-85
2023/08/19 07:09:26;;;;;;;19.90;11.68;;;;;;;26.49;100.00;100560.45;1500841;86;21351;-83
2023/08/19 07:11:55;;;;;;;16.10;11.10;;;;;;;26.54;100.00;100566.53;1494184;86;21469;-87
2023/08/19 07:14:27;;;;;;;16.02;11.70;;;;;;;26.43;100.00;100566.88;1505049;85;21381;-85
2023/08/19 07:20:56;;;;;;;16.32;11.12;;;;;;;26.83;100.00;100569.09;1504637;86;21610;-85
2023/08/19 07:23:26;;;;;;;12.03;10.80;;;;;;;27.11;100.00;100578.95;1511641;86;21602;-84
2023/08/19 07:25:53;;;;;;;;;;;;;;;27.10;100.00;100580.82;1515482;85;21373;-86
2023/08/19 07:28:23;;;;;;;11.03;9.50;;;;;;;27.19;100.00;100579.89;1514782;85;20285;-87
2023/08/19 07:30:51;;;;;;;13.60;9.98;;;;;;;27.31;100.00;100581.11;1601629;86;21183;-86
2023/08/19 07:33:17;;;;;;;14.53;10.48;;;;;;;27.50;100.00;100585.64;1431201;86;21307;-86
2023/08/19 07:35:44;;;;;;;12.35;9.38;;;;;;;27.56;100.00;100584.61;1507479;84;21943;-87
2023/08/19 07:38:11;;;;;;;13.32;9.85;;;;;;;27.61;100.00;100583.31;1531017;84;22336;-85
2023/08/19 07:40:37;;;;;;;16.37;10.18;;;;;;;27.61;100.00;100585.48;1536230;84;21402;-83
2023/08/19 07:43:04;;;;;;;13.45;9.73;;;;;;;27.73;100.00;100585.87;1535166;84;21499;-85
2023/08/19 07:45:36;;;;;;;15.63;10.25;;;;;;;27.72;100.00;100589.13;1529240;84;22297;-85
2023/08/19 07:48:03;;;;;;;18.37;9.65;;;;;;;27.70;100.00;100584.48;1535332;84;21579;-84
2023/08/19 07:50:30;;;;;;;13.95;10.03;;;;;;;27.68;100.00;100585.30;1533372;84;21351;-87
2023/08/19 07:52:58;;;;;;;13.15;10.68;;;;;;;27.72;100.00;100589.13;1507351;84;21558;-86
2023/08/19 07:55:24;;;;;;;13.15;10.05;;;;;;;27.85;100.00;100588.75;1534490;84;21343;-86
2023/08/19 07:57:50;;;;;;;12.95;9.60;;;;;;;28.02;100.00;100590.50;1514295;84;21557;-88
2023/08/19 08:00:17;;;;;;;20.45;10.25;;;;;;;28.15;100.00;100589.27;1532712;84;21343;-85
2023/08/19 08:02:43;;;;;;;20.48;10.05;;;;;;;28.14;100.00;100581.64;1531585;84;21306;-87
2023/08/19 08:05:10;;;;;;;15.58;10.95;;;;;;;28.28;100.00;100585.56;1491504;84;21611;-85
2023/08/19 08:07:36;;;;;;;13.03;10.32;;;;;;;28.45;100.00;100583.23;1532448;84;21366;-86
2023/08/19 08:10:05;;;;;;;11.78;9.48;;;;;;;28.59;100.00;100580.32;1510660;84;21336;-85
2023/08/19 08:12:32;;;;;;;11.80;10.28;;;;;;;28.72;100.00;100586.67;1532572;84;21344;-89
2023/08/19 08:14:59;;;;;;;13.30;9.75;;;;;;;28.82;100.00;100585.89;1532601;84;22416;-84
2023/08/19 08:17:25;;;;;;;9.80;8.80;;;;;;;28.84;100.00;100577.47;1530232;84;21358;-85
2023/08/19 08:19:54;;;;;;;16.23;9.48;;;;;;;28.83;100.00;100578.53;1513340;84;21359;-88
2023/08/19 08:22:20;;;;;;;11.43;9.40;;;;;;;28.90;100.00;100572.31;1532867;84;21417;-89
2023/08/19 08:24:47;;;;;;;11.20;8.90;;;;;;;29.06;100.00;100580.86;1534726;84;21550;-89
2023/08/19 08:27:13;;;;;;;14.03;8.50;;;;;;;29.13;100.00;100584.14;1508849;84;21351;-87
2023/08/19 08:29:40;;;;;;;11.65;9.40;;;;;;;29.14;100.00;100583.05;1534722;84;21499;-85
2023/08/19 08:32:06;;;;;;;13.48;8.98;;;;;;;29.24;100.00;100584.45;1509799;84;21403;-85
2023/08/19 08:34:33;;;;;;;20.37;9.40;;;;;;;29.37;100.00;100583.66;1532461;84;21299;-85
2023/08/19 08:36:59;;;;;;;14.58;8.63;;;;;;;29.41;100.00;100582.05;1521835;85;21329;-87
2023/08/19 08:39:25;;;;;;;17.17;10.25;;;;;;;29.44;100.00;100580.15;1520363;85;21315;-87
2023/08/19 08:41:52;;;;;;;9.73;8.65;;;;;;;29.50;100.00;100585.88;1518377;85;21389;-86
2023/08/19 08:44:19;;;;;;;14.18;8.28;;;;;;;29.54;100.00;100585.61;1520113;85;21321;-85
2023/08/19 08:46:48;;;;;;;14.50;8.08;;;;;;;29.57;100.00;100585.61;1522404;85;21506;-86
2023/08/19 08:49:16;;;;;;;9.05;8.25;;;;;;;29.72;100.00;100584.84;1523032;85;21336;-85
2023/08/19 08:51:42;;;;;;;16.02;8.93;;;;;;;29.91;100.00;100585.95;1521560;85;21321;-87
2023/08/19 08:54:10;;;;;;;19.77;8.05;;;;;;;29.96;100.00;100595.52;1521864;85;21396;-86
2023/08/19 08:56:37;;;;;;;11.03;8.70;;;;;;;29.98;100.00;100596.58;1499901;85;21367;-85
2023/08/19 08:59:03;;;;;;;12.00;8.80;;;;;;;30.02;100.00;100590.32;1521566;85;22445;-87
2023/08/19 09:01:31;;;;;;;10.72;8.53;;;;;;;30.14;100.00;100592.22;1498308;85;22407;-85
2023/08/19 09:04:03;;;;;;;13.30;8.18;;;;;;;30.26;100.00;100595.25;1502391;85;21388;-85
2023/08/19 09:06:31;;;;;;;10.75;8.05;;;;;;;30.40;100.00;100596.31;1442785;85;22143;-86
2023/08/19 09:09:06;;;;;;;12.58;8.48;;;;;;;30.53;100.00;100589.48;1439892;85;21219;-85
2023/08/19 09:11:36;;;;;;;12.10;8.70;;;;;;;30.69;100.00;100597.07;1606201;85;21301;-86
2023/08/19 09:14:23;;;;;;;10.75;8.25;;;;;;;30.73;100.00;100594.07;1612420;85;21138;-85
2023/08/19 09:16:50;;;;;;;12.50;8.20;;;;;;;30.87;100.00;100594.30;1518123;85;21396;-86
2023/08/19 09:19:16;;;;;;;13.83;8.55;;;;;;;30.85;100.00;100589.14;1523341;85;21417;-83
2023/08/19 09:21:42;;;;;;;11.50;8.15;;;;;;;30.92;100.00;100586.91;1524574;85;21462;-86
2023/08/19 09:24:09;;;;;;;14.68;9.20;;;;;;;31.05;100.00;100581.95;1522349;85;22231;-83
2023/08/19 09:26:38;;;;;;;11.50;9.28;;;;;;;31.16;100.00;100578.05;1520736;85;21535;-82
2023/08/19 09:29:06;;;;;;;9.65;8.28;;;;;;;31.17;100.00;100579.70;1501444;85;21359;-83
2023/08/19 09:31:32;;;;;;;18.37;8.53;;;;;;;31.15;100.00;100582.70;1502609;85;22600;-85
2023/08/19 09:34:00;;;;;;;12.82;8.48;;;;;;;31.12;100.00;100588.73;1521245;85;21396;-83
2023/08/19 09:36:27;;;;;;;13.43;9.23;;;;;;;30.99;100.00;100586.63;1529505;84;22547;-83
2023/08/19 09:38:55;;;;;;;10.58;7.92;;;;;;;31.01;100.00;100592.05;1530785;84;22245;-84
2023/08/19 09:41:39;;;;;;;11.33;8.35;;;;;;;31.10;100.00;100594.20;1454849;84;22482;-83
2023/08/19 09:44:13;;;;;;;9.85;8.08;;;;;;;31.11;100.00;100591.77;1599486;84;21322;-85
2023/08/19 09:46:40;;;;;;;9.25;8.33;;;;;;;31.09;99.73;100599.42;1461744;84;21479;-84
2023/08/19 09:49:06;;;;;;;9.90;8.93;;;;;;;31.21;100.00;100591.14;1534471;84;21306;-84
2023/08/19 09:51:32;;;;;;;10.95;8.58;;;;;;;31.22;100.00;100588.70;1512689;84;21532;-84
2023/08/19 09:54:10;;;;;;;9.38;8.08;;;;;;;31.33;100.00;100586.70;1536273;84;21396;-85
2023/08/19 09:56:37;;;;;;;17.82;7.62;;;;;;;31.41;100.00;100591.61;1535609;84;22349;-83
2023/08/19 09:59:06;;;;;;;9.00;7.50;;;;;;;31.46;100.00;100590.22;1532511;84;21695;-83
2023/08/19 10:01:34;;;;;;;8.65;7.45;;;;;;;31.62;100.00;100588.73;1454193;84;21278;-83
2023/08/19 10:04:00;;;;;;;12.47;8.03;;;;;;;31.61;98.81;100589.85;1618078;84;21343;-83
2023/08/19 10:06:29;;;;;;;9.55;8.33;;;;;;;31.72;100.00;100583.20;1451345;84;21247;-83
2023/08/19 10:09:02;;;;;;;10.82;8.23;;;;;;;31.82;100.00;100583.14;1434064;86;21263;-85
2023/08/19 10:11:31;;;;;;;9.20;8.28;;;;;;;31.91;100.00;100580.08;1624907;84;21321;-84
2023/08/19 10:14:02;;;;;;;17.32;8.68;;;;;;;31.98;98.90;100578.94;1454778;84;22010;-85
2023/08/19 10:16:32;;;;;;;14.07;8.83;;;;;;;32.07;99.73;100579.38;1426882;87;21307;-85
2023/08/19 10:19:00;;;;;;;14.18;9.13;;;;;;;32.21;100.00;100574.06;1447826;84;22063;-85
2023/08/19 10:21:30;;;;;;;14.23;8.70;;;;;;;32.32;98.41;100574.22;1449208;84;21247;-85
2023/08/19 10:23:58;;;;;;;12.20;8.95;;;;;;;32.30;99.85;100577.80;1446580;86;21432;-85
2023/08/19 10:26:24;;;;;;;11.43;9.35;;;;;;;32.40;100.00;100576.89;1456583;84;21328;-85
2023/08/19 10:29:08;;;;;;;13.75;9.65;;;;;;;32.46;98.74;100583.16;1479039;84;21269;-85
2023/08/19 10:31:35;;;;;;;11.78;9.03;;;;;;;32.50;99.57;100579.54;1531724;84;21373;-83
2023/08/19 10:34:28;;;;;;;10.85;9.30;;;;;;;32.65;99.85;100578.55;1533741;84;21344;-84
2023/08/19 10:37:11;;;;;;;9.80;8.78;;;;;;;32.70;98.71;100575.75;1415345;86;21415;-87
2023/08/19 10:39:38;;;;;;;14.23;9.05;;;;;;;32.72;99.04;100568.06;1601658;85;21153;-84
2023/08/19 10:42:05;;;;;;;15.25;9.08;;;;;;;32.60;95.43;100573.15;1472330;86;22346;-86
2023/08/19 10:44:33;;;;;;;11.48;8.70;;;;;;;32.62;97.13;100571.47;1510499;86;21447;-86
2023/08/19 10:47:13;;;;;;;15.88;9.25;;;;;;;32.73;98.23;100571.06;1513510;85;21857;-85
2023/08/19 10:49:39;;;;;;;9.40;8.23;;;;;;;32.83;97.31;100567.92;1512007;85;21714;-84
2023/08/19 10:52:06;;;;;;;11.63;10.10;;;;;;;32.95;97.39;100566.97;1511869;85;21403;-86
2023/08/19 10:54:44;;;;;;;9.45;8.25;;;;;;;32.99;96.77;100560.62;1511138;86;22356;-82
2023/08/19 10:57:23;;;;;;;10.40;8.60;;;;;;;33.08;96.44;100564.89;1511464;85;22510;-88
2023/08/19 10:59:58;;;;;;;13.72;8.08;;;;;;;33.04;96.22;100570.71;1513174;85;21344;-86
2023/08/19 11:02:27;;;;;;;11.20;8.55;;;;;;;33.12;97.02;100568.69;1513086;86;21617;-83
2023/08/19 11:04:53;;;;;;;15.00;9.08;;;;;;;33.18;97.42;100570.25;1436619;86;21278;-84
2023/08/19 11:07:21;;;;;;;13.38;8.63;;;;;;;32.91;91.83;100562.61;1495334;86;21277;-83
2023/08/19 11:09:50;;;;;;;14.28;8.38;;;;;;;32.84;94.25;100562.73;1511715;85;21595;-84
2023/08/19 11:12:22;;;;;;;14.00;8.20;;;;;;;32.85;97.38;100560.23;1513079;86;22282;-85
2023/08/19 11:14:51;;;;;;;11.48;8.43;;;;;;;32.98;96.29;100560.90;1510294;85;22223;-84
2023/08/19 11:17:19;;;;;;;12.95;8.30;;;;;;;33.12;96.24;100554.17;1513592;86;21539;-83